Terminal Aerodrome Forecast
Issued by NWS Wilmington, OH

Current Version | Previous Version | Graphics & Text | Print | Product List | Glossary On
Versions: 1 2 3 4 5 6 7 8 9 10 11 12 13 14 15 16 17 18 19 20 21 22 23 24 25 26 27 28 29
000
FTUS41 KILN 310900 AAA
TAFCVG
TAF AMD
KCVG 310900Z 3109/0112 19007KT P6SM FEW060 BKN150
     FM311200 22010KT P6SM BKN015 OVC060
     FM311500 22012KT P6SM VCSH OVC025
     FM312100 27012KT P6SM BKN025
     FM010100 32006KT P6SM OVC015=

USA.gov is the U.S. government's official web portal to all federal, state and local government web resources and services.